sensor_id;sensor_type;location;lat;lon;timestamp;pressure;altitude;pressure_sealevel;temperature;humidity
65832;BME280;52593;42.648;23.332;2024-01-25T00:02:05;95092.31;;;1.43;83.82
65832;BME280;52593;42.648;23.332;2024-01-25T00:04:30;95083.06;;;1.37;84.07
65832;BME280;52593;42.648;23.332;2024-01-25T00:06:56;95089.13;;;1.27;84.60
65832;BME280;52593;42.648;23.332;2024-01-25T00:09:21;95087.09;;;1.30;85.24
65832;BME280;52593;42.648;23.332;2024-01-25T00:11:47;95074.31;;;1.37;84.24
65832;BME280;52593;42.648;23.332;2024-01-25T00:14:12;95065.97;;;1.43;85.28
65832;BME280;52593;42.648;23.332;2024-01-25T00:16:41;95057.94;;;1.45;85.97
65832;BME280;52593;42.648;23.332;2024-01-25T00:19:07;95034.88;;;1.35;86.87
65832;BME280;52593;42.648;23.332;2024-01-25T00:21:32;95015.88;;;1.54;86.35
65832;BME280;52593;42.648;23.332;2024-01-25T00:23:58;95009.50;;;1.46;85.88
65832;BME280;52593;42.648;23.332;2024-01-25T00:26:23;94974.63;;;1.53;84.06
65832;BME280;52593;42.648;23.332;2024-01-25T00:28:49;94948.28;;;1.53;83.97
65832;BME280;52593;42.648;23.332;2024-01-25T00:31:14;94950.31;;;1.61;84.25
65832;BME280;52593;42.648;23.332;2024-01-25T00:33:40;94960.34;;;1.56;83.94
65832;BME280;52593;42.648;23.332;2024-01-25T00:36:06;94955.09;;;1.78;82.28
65832;BME280;52593;42.648;23.332;2024-01-25T00:38:31;94963.13;;;1.88;82.02
65832;BME280;52593;42.648;23.332;2024-01-25T00:40:57;94967.94;;;1.83;81.53
65832;BME280;52593;42.648;23.332;2024-01-25T00:43:23;94966.38;;;1.81;81.88
65832;BME280;52593;42.648;23.332;2024-01-25T00:45:49;94972.34;;;1.71;82.51
65832;BME280;52593;42.648;23.332;2024-01-25T00:48:14;94977.50;;;1.73;82.58
65832;BME280;52593;42.648;23.332;2024-01-25T00:50:41;94965.41;;;1.70;82.63
65832;BME280;52593;42.648;23.332;2024-01-25T00:53:06;94954.59;;;1.62;82.50
65832;BME280;52593;42.648;23.332;2024-01-25T00:55:32;94948.03;;;1.56;83.21
65832;BME280;52593;42.648;23.332;2024-01-25T00:57:58;94956.78;;;1.68;82.88
65832;BME280;52593;42.648;23.332;2024-01-25T01:00:25;94972.25;;;1.73;82.87
65832;BME280;52593;42.648;23.332;2024-01-25T01:02:52;94965.19;;;1.73;82.48
65832;BME280;52593;42.648;23.332;2024-01-25T01:05:18;94980.28;;;1.71;82.53
65832;BME280;52593;42.648;23.332;2024-01-25T01:07:44;94975.03;;;1.83;82.74
65832;BME280;52593;42.648;23.332;2024-01-25T01:10:10;94984.47;;;1.85;83.82
65832;BME280;52593;42.648;23.332;2024-01-25T01:12:36;94990.25;;;1.90;82.57
65832;BME280;52593;42.648;23.332;2024-01-25T01:15:01;94976.56;;;1.74;83.26
65832;BME280;52593;42.648;23.332;2024-01-25T01:17:27;94965.63;;;1.56;84.03
65832;BME280;52593;42.648;23.332;2024-01-25T01:19:53;94965.41;;;1.70;85.34
65832;BME280;52593;42.648;23.332;2024-01-25T01:22:18;94948.38;;;1.63;84.32
65832;BME280;52593;42.648;23.332;2024-01-25T01:24:44;94941.19;;;1.65;83.44
65832;BME280;52593;42.648;23.332;2024-01-25T01:27:09;94922.59;;;1.89;82.58
65832;BME280;52593;42.648;23.332;2024-01-25T01:29:35;94915.63;;;1.88;82.36
65832;BME280;52593;42.648;23.332;2024-01-25T01:32:00;94900.66;;;1.89;81.20
65832;BME280;52593;42.648;23.332;2024-01-25T01:34:25;94899.91;;;1.87;82.17
65832;BME280;52593;42.648;23.332;2024-01-25T01:36:51;94906.16;;;1.86;82.33
65832;BME280;52593;42.648;23.332;2024-01-25T01:39:17;94897.53;;;1.95;82.08
65832;BME280;52593;42.648;23.332;2024-01-25T01:41:46;94890.22;;;1.87;82.14
65832;BME280;52593;42.648;23.332;2024-01-25T01:44:12;94892.44;;;2.14;81.48
65832;BME280;52593;42.648;23.332;2024-01-25T01:46:37;94899.50;;;2.14;81.07
65832;BME280;52593;42.648;23.332;2024-01-25T01:49:06;94901.09;;;2.05;81.57
65832;BME280;52593;42.648;23.332;2024-01-25T01:51:32;94885.16;;;1.95;81.97
65832;BME280;52593;42.648;23.332;2024-01-25T01:54:02;94881.44;;;1.98;82.56
65832;BME280;52593;42.648;23.332;2024-01-25T01:56:29;94879.28;;;1.92;82.19
65832;BME280;52593;42.648;23.332;2024-01-25T01:58:56;94880.25;;;1.91;82.38
65832;BME280;52593;42.648;23.332;2024-01-25T02:01:24;94876.41;;;1.95;82.21
65832;BME280;52593;42.648;23.332;2024-01-25T02:03:49;94892.00;;;1.98;82.37
65832;BME280;52593;42.648;23.332;2024-01-25T02:06:15;94882.75;;;2.04;82.15
65832;BME280;52593;42.648;23.332;2024-01-25T02:08:40;94884.66;;;2.13;81.85
65832;BME280;52593;42.648;23.332;2024-01-25T02:11:06;94883.66;;;2.14;81.57
65832;BME280;52593;42.648;23.332;2024-01-25T02:13:33;94867.97;;;2.12;82.70
65832;BME280;52593;42.648;23.332;2024-01-25T02:15:58;94878.38;;;2.25;82.93
65832;BME280;52593;42.648;23.332;2024-01-25T02:18:24;94879.41;;;2.34;83.58
65832;BME280;52593;42.648;23.332;2024-01-25T02:20:49;94874.56;;;2.50;83.66
65832;BME280;52593;42.648;23.332;2024-01-25T02:23:15;94873.06;;;3.11;82.79
65832;BME280;52593;42.648;23.332;2024-01-25T02:25:40;94873.59;;;3.67;81.74
65832;BME280;52593;42.648;23.332;2024-01-25T02:28:06;94875.16;;;4.20;80.04
65832;BME280;52593;42.648;23.332;2024-01-25T02:30:31;94854.69;;;4.51;78.05
65832;BME280;52593;42.648;23.332;2024-01-25T02:32:57;94850.06;;;4.92;76.88
65832;BME280;52593;42.648;23.332;2024-01-25T02:35:22;94845.66;;;5.21;76.10
65832;BME280;52593;42.648;23.332;2024-01-25T02:37:48;94852.00;;;5.57;74.70
65832;BME280;52593;42.648;23.332;2024-01-25T02:40:16;94837.53;;;5.69;72.75
65832;BME280;52593;42.648;23.332;2024-01-25T02:42:41;94840.53;;;5.94;72.36
65832;BME280;52593;42.648;23.332;2024-01-25T02:45:07;94849.69;;;6.10;72.02
65832;BME280;52593;42.648;23.332;2024-01-25T02:47:33;94842.25;;;6.13;70.97
65832;BME280;52593;42.648;23.332;2024-01-25T02:49:58;94832.47;;;6.14;70.65
65832;BME280;52593;42.648;23.332;2024-01-25T02:52:24;94834.13;;;6.15;70.32
65832;BME280;52593;42.648;23.332;2024-01-25T02:54:49;94834.00;;;6.16;70.29
65832;BME280;52593;42.648;23.332;2024-01-25T02:57:15;94828.53;;;6.18;70.21
65832;BME280;52593;42.648;23.332;2024-01-25T02:59:41;94826.84;;;6.17;70.02
65832;BME280;52593;42.648;23.332;2024-01-25T03:02:07;94839.53;;;6.23;70.20
65832;BME280;52593;42.648;23.332;2024-01-25T03:04:32;94850.88;;;6.25;70.22
65832;BME280;52593;42.648;23.332;2024-01-25T03:06:57;94855.31;;;6.24;70.76
65832;BME280;52593;42.648;23.332;2024-01-25T03:09:23;94855.03;;;6.28;70.26
65832;BME280;52593;42.648;23.332;2024-01-25T03:11:49;94858.09;;;6.33;70.86
65832;BME280;52593;42.648;23.332;2024-01-25T03:14:15;94852.78;;;6.33;71.37
65832;BME280;52593;42.648;23.332;2024-01-25T03:16:40;94849.88;;;6.44;72.18
65832;BME280;52593;42.648;23.332;2024-01-25T03:19:06;94858.50;;;6.56;72.46
65832;BME280;52593;42.648;23.332;2024-01-25T03:21:31;94846.13;;;6.65;71.44
65832;BME280;52593;42.648;23.332;2024-01-25T03:23:57;94838.97;;;6.65;70.72
65832;BME280;52593;42.648;23.332;2024-01-25T03:26:22;94830.00;;;6.66;71.43
65832;BME280;52593;42.648;23.332;2024-01-25T03:28:48;94838.13;;;6.65;71.31
65832;BME280;52593;42.648;23.332;2024-01-25T03:31:13;94830.91;;;6.57;71.47
65832;BME280;52593;42.648;23.332;2024-01-25T03:33:39;94824.44;;;6.59;71.92
65832;BME280;52593;42.648;23.332;2024-01-25T03:36:05;94823.06;;;6.55;71.76
65832;BME280;52593;42.648;23.332;2024-01-25T03:38:31;94839.41;;;6.42;71.74
65832;BME280;52593;42.648;23.332;2024-01-25T03:40:56;94814.81;;;6.40;71.82
65832;BME280;52593;42.648;23.332;2024-01-25T03:43:24;94797.50;;;6.36;71.69
65832;BME280;52593;42.648;23.332;2024-01-25T03:45:50;94789.97;;;6.32;71.11
65832;BME280;52593;42.648;23.332;2024-01-25T03:48:15;94796.09;;;6.32;70.68
65832;BME280;52593;42.648;23.332;2024-01-25T03:50:41;94790.78;;;6.32;70.30
65832;BME280;52593;42.648;23.332;2024-01-25T03:53:07;94793.75;;;6.29;70.58
65832;BME280;52593;42.648;23.332;2024-01-25T03:55:32;94795.50;;;6.20;70.54
65832;BME280;52593;42.648;23.332;2024-01-25T03:57:58;94784.59;;;6.23;70.45
65832;BME280;52593;42.648;23.332;2024-01-25T04:00:23;94771.50;;;6.30;70.09
65832;BME280;52593;42.648;23.332;2024-01-25T04:02:50;94750.63;;;6.35;69.35
65832;BME280;52593;42.648;23.332;2024-01-25T04:05:15;94772.59;;;6.37;69.29
65832;BME280;52593;42.648;23.332;2024-01-25T04:07:41;94769.31;;;6.43;69.04
65832;BME280;52593;42.648;23.332;2024-01-25T04:10:07;94773.00;;;6.51;68.94
65832;BME280;52593;42.648;23.332;2024-01-25T04:12:32;94775.22;;;6.55;69.46
65832;BME280;52593;42.648;23.332;2024-01-25T04:14:58;94759.72;;;6.69;70.18
65832;BME280;52593;42.648;23.332;2024-01-25T04:17:24;94772.94;;;6.78;68.88
65832;BME280;52593;42.648;23.332;2024-01-25T04:19:49;94782.19;;;6.74;68.35
65832;BME280;52593;42.648;23.332;2024-01-25T04:22:15;94775.34;;;6.72;68.82
65832;BME280;52593;42.648;23.332;2024-01-25T04:24:40;94766.09;;;6.76;68.34
65832;BME280;52593;42.648;23.332;2024-01-25T04:27:06;94777.25;;;6.79;67.35
65832;BME280;52593;42.648;23.332;2024-01-25T04:29:31;94762.50;;;6.85;67.30
65832;BME280;52593;42.648;23.332;2024-01-25T04:31:57;94758.63;;;6.79;67.54
65832;BME280;52593;42.648;23.332;2024-01-25T04:34:22;94768.16;;;6.64;67.02
65832;BME280;52593;42.648;23.332;2024-01-25T04:36:48;94769.97;;;6.64;66.76
65832;BME280;52593;42.648;23.332;2024-01-25T04:39:13;94774.63;;;6.62;67.13
65832;BME280;52593;42.648;23.332;2024-01-25T04:41:39;94770.06;;;6.54;67.09
65832;BME280;52593;42.648;23.332;2024-01-25T04:44:05;94776.53;;;6.51;66.15
65832;BME280;52593;42.648;23.332;2024-01-25T04:46:30;94798.56;;;6.43;66.73
65832;BME280;52593;42.648;23.332;2024-01-25T04:49:02;94800.28;;;6.17;67.32
65832;BME280;52593;42.648;23.332;2024-01-25T04:51:27;94805.88;;;5.86;68.67
65832;BME280;52593;42.648;23.332;2024-01-25T04:53:53;94810.81;;;5.53;69.18
65832;BME280;52593;42.648;23.332;2024-01-25T04:56:18;94805.19;;;5.28;70.25
65832;BME280;52593;42.648;23.332;2024-01-25T04:58:44;94798.72;;;5.31;70.23
65832;BME280;52593;42.648;23.332;2024-01-25T05:01:09;94805.97;;;5.39;69.80
65832;BME280;52593;42.648;23.332;2024-01-25T05:03:35;94803.16;;;5.40;69.52
65832;BME280;52593;42.648;23.332;2024-01-25T05:06:00;94820.28;;;5.56;69.03
65832;BME280;52593;42.648;23.332;2024-01-25T05:08:26;94820.19;;;5.75;66.92
65832;BME280;52593;42.648;23.332;2024-01-25T05:10:52;94821.53;;;5.89;66.02
65832;BME280;52593;42.648;23.332;2024-01-25T05:13:18;94826.25;;;6.05;64.78
65832;BME280;52593;42.648;23.332;2024-01-25T05:15:44;94831.34;;;6.16;63.51
65832;BME280;52593;42.648;23.332;2024-01-25T05:18:09;94853.97;;;6.20;64.38
65832;BME280;52593;42.648;23.332;2024-01-25T05:20:35;94861.50;;;6.25;64.47
65832;BME280;52593;42.648;23.332;2024-01-25T05:23:03;94852.13;;;6.21;63.33
65832;BME280;52593;42.648;23.332;2024-01-25T05:25:29;94868.91;;;6.21;62.69
65832;BME280;52593;42.648;23.332;2024-01-25T05:27:55;94876.66;;;6.15;63.07
65832;BME280;52593;42.648;23.332;2024-01-25T05:30:21;94862.41;;;6.16;63.23
65832;BME280;52593;42.648;23.332;2024-01-25T05:32:47;94862.25;;;6.17;63.11
65832;BME280;52593;42.648;23.332;2024-01-25T05:35:15;94869.28;;;6.09;62.95
65832;BME280;52593;42.648;23.332;2024-01-25T05:37:41;94873.63;;;6.10;62.79
65832;BME280;52593;42.648;23.332;2024-01-25T05:40:08;94879.59;;;6.12;63.03
65832;BME280;52593;42.648;23.332;2024-01-25T05:42:36;94867.59;;;6.07;63.14
65832;BME280;52593;42.648;23.332;2024-01-25T05:45:03;94870.84;;;6.01;63.49
65832;BME280;52593;42.648;23.332;2024-01-25T05:47:29;94892.81;;;6.03;62.97
65832;BME280;52593;42.648;23.332;2024-01-25T05:49:55;94879.38;;;6.05;62.90
65832;BME280;52593;42.648;23.332;2024-01-25T05:52:21;94885.81;;;6.02;62.82
65832;BME280;52593;42.648;23.332;2024-01-25T05:54:47;94892.22;;;6.10;63.11
65832;BME280;52593;42.648;23.332;2024-01-25T05:57:12;94895.47;;;6.03;63.83
65832;BME280;52593;42.648;23.332;2024-01-25T05:59:38;94891.41;;;5.99;63.83
65832;BME280;52593;42.648;23.332;2024-01-25T06:02:04;94898.41;;;5.90;64.35
65832;BME280;52593;42.648;23.332;2024-01-25T06:04:29;94884.97;;;5.92;64.37
65832;BME280;52593;42.648;23.332;2024-01-25T06:06:55;94891.41;;;5.89;64.97
65832;BME280;52593;42.648;23.332;2024-01-25T06:09:21;94898.44;;;5.81;64.73
65832;BME280;52593;42.648;23.332;2024-01-25T06:11:46;94898.44;;;5.81;66.64
65832;BME280;52593;42.648;23.332;2024-01-25T06:14:11;94891.06;;;5.75;66.41
65832;BME280;52593;42.648;23.332;2024-01-25T06:16:37;94914.97;;;5.75;66.92
65832;BME280;52593;42.648;23.332;2024-01-25T06:19:03;94910.03;;;5.80;66.17
65832;BME280;52593;42.648;23.332;2024-01-25T06:21:29;94914.19;;;5.92;66.84
65832;BME280;52593;42.648;23.332;2024-01-25T06:23:54;94924.41;;;5.97;65.54
65832;BME280;52593;42.648;23.332;2024-01-25T06:26:20;94918.53;;;5.93;65.97
65832;BME280;52593;42.648;23.332;2024-01-25T06:28:45;94909.03;;;5.90;65.03
65832;BME280;52593;42.648;23.332;2024-01-25T06:31:11;94921.47;;;5.90;64.98
65832;BME280;52593;42.648;23.332;2024-01-25T06:33:36;94915.16;;;5.91;65.35
65832;BME280;52593;42.648;23.332;2024-01-25T06:36:02;94916.47;;;5.87;65.77
65832;BME280;52593;42.648;23.332;2024-01-25T06:38:27;94934.78;;;5.80;65.69
65832;BME280;52593;42.648;23.332;2024-01-25T06:40:53;94924.28;;;5.79;65.47
65832;BME280;52593;42.648;23.332;2024-01-25T06:43:18;94915.50;;;5.78;65.56
65832;BME280;52593;42.648;23.332;2024-01-25T06:45:44;94910.19;;;5.78;66.31
65832;BME280;52593;42.648;23.332;2024-01-25T06:48:09;94919.69;;;5.81;66.46
65832;BME280;52593;42.648;23.332;2024-01-25T06:50:35;94905.72;;;5.79;66.05
65832;BME280;52593;42.648;23.332;2024-01-25T06:53:00;94931.44;;;5.78;66.08
65832;BME280;52593;42.648;23.332;2024-01-25T06:55:26;94921.09;;;5.75;66.19
65832;BME280;52593;42.648;23.332;2024-01-25T06:57:52;94921.09;;;5.75;66.18
65832;BME280;52593;42.648;23.332;2024-01-25T07:00:17;94918.59;;;5.74;65.94
65832;BME280;52593;42.648;23.332;2024-01-25T07:02:44;94929.34;;;5.72;66.41
65832;BME280;52593;42.648;23.332;2024-01-25T07:05:09;94921.69;;;5.69;65.60
65832;BME280;52593;42.648;23.332;2024-01-25T07:07:35;94911.06;;;5.69;66.98
65832;BME280;52593;42.648;23.332;2024-01-25T07:10:06;94902.94;;;5.70;66.73
65832;BME280;52593;42.648;23.332;2024-01-25T07:12:32;94910.34;;;5.77;66.64
65832;BME280;52593;42.648;23.332;2024-01-25T07:14:58;94894.69;;;5.74;66.04
65832;BME280;52593;42.648;23.332;2024-01-25T07:17:23;94889.38;;;5.74;67.04
65832;BME280;52593;42.648;23.332;2024-01-25T07:19:49;94885.75;;;5.75;65.94
65832;BME280;52593;42.648;23.332;2024-01-25T07:22:14;94877.22;;;5.71;65.53
65832;BME280;52593;42.648;23.332;2024-01-25T07:24:40;94889.69;;;5.70;65.67
65832;BME280;52593;42.648;23.332;2024-01-25T07:27:06;94900.97;;;5.72;64.96
65832;BME280;52593;42.648;23.332;2024-01-25T07:29:31;94914.97;;;5.75;64.54
65832;BME280;52593;42.648;23.332;2024-01-25T07:31:57;94912.31;;;5.75;64.48
65832;BME280;52593;42.648;23.332;2024-01-25T07:34:22;94913.97;;;5.76;64.63
65832;BME280;52593;42.648;23.332;2024-01-25T07:36:48;94923.63;;;5.77;65.03
65832;BME280;52593;42.648;23.332;2024-01-25T07:39:13;94908.50;;;5.77;65.68
65832;BME280;52593;42.648;23.332;2024-01-25T07:41:39;94902.38;;;5.77;65.76
65832;BME280;52593;42.648;23.332;2024-01-25T07:44:04;94904.28;;;5.84;64.46
65832;BME280;52593;42.648;23.332;2024-01-25T07:46:31;94914.38;;;5.81;64.21
65832;BME280;52593;42.648;23.332;2024-01-25T07:48:56;94930.31;;;5.81;63.95
65832;BME280;52593;42.648;23.332;2024-01-25T07:51:22;94928.25;;;5.65;64.07
65832;BME280;52593;42.648;23.332;2024-01-25T07:53:47;94933.84;;;5.71;64.36
65832;BME280;52593;42.648;23.332;2024-01-25T07:56:13;94936.34;;;5.73;64.44
65832;BME280;52593;42.648;23.332;2024-01-25T07:58:39;94941.53;;;5.75;63.61
65832;BME280;52593;42.648;23.332;2024-01-25T08:01:05;94934.53;;;5.74;64.81
65832;BME280;52593;42.648;23.332;2024-01-25T08:03:31;94929.91;;;5.76;66.40
65832;BME280;52593;42.648;23.332;2024-01-25T08:06:01;94935.06;;;5.87;63.62
65832;BME280;52593;42.648;23.332;2024-01-25T08:08:27;94942.28;;;5.95;63.06
65832;BME280;52593;42.648;23.332;2024-01-25T08:10:53;94926.50;;;5.93;62.36
65832;BME280;52593;42.648;23.332;2024-01-25T08:13:19;94919.94;;;5.87;62.34
65832;BME280;52593;42.648;23.332;2024-01-25T08:15:45;94913.53;;;5.80;62.94
65832;BME280;52593;42.648;23.332;2024-01-25T08:18:12;94929.31;;;5.92;62.47
65832;BME280;52593;42.648;23.332;2024-01-25T08:20:38;94922.16;;;5.92;61.83
65832;BME280;52593;42.648;23.332;2024-01-25T08:23:03;94926.06;;;5.88;62.18
65832;BME280;52593;42.648;23.332;2024-01-25T08:25:29;94924.38;;;6.06;63.42
65832;BME280;52593;42.648;23.332;2024-01-25T08:27:54;94926.91;;;6.08;61.15
65832;BME280;52593;42.648;23.332;2024-01-25T08:30:20;94926.59;;;6.11;61.13
65832;BME280;52593;42.648;23.332;2024-01-25T08:32:45;94916.66;;;6.13;60.60
65832;BME280;52593;42.648;23.332;2024-01-25T08:35:11;94937.47;;;6.18;60.36
65832;BME280;52593;42.648;23.332;2024-01-25T08:37:36;94934.50;;;6.21;60.15
65832;BME280;52593;42.648;23.332;2024-01-25T08:40:03;94945.16;;;6.21;59.51
65832;BME280;52593;42.648;23.332;2024-01-25T08:42:31;94929.41;;;6.10;59.54
65832;BME280;52593;42.648;23.332;2024-01-25T08:44:57;94948.38;;;6.15;60.56
65832;BME280;52593;42.648;23.332;2024-01-25T08:47:22;94944.50;;;6.09;60.25
65832;BME280;52593;42.648;23.332;2024-01-25T08:49:48;94963.44;;;6.24;60.49
65832;BME280;52593;42.648;23.332;2024-01-25T08:52:13;94943.44;;;6.30;61.71
65832;BME280;52593;42.648;23.332;2024-01-25T08:54:40;94939.91;;;6.29;60.31
65832;BME280;52593;42.648;23.332;2024-01-25T08:57:07;94949.19;;;6.25;59.97
65832;BME280;52593;42.648;23.332;2024-01-25T08:59:34;94948.34;;;6.24;60.57
65832;BME280;52593;42.648;23.332;2024-01-25T09:02:03;94945.88;;;6.41;60.28
65832;BME280;52593;42.648;23.332;2024-01-25T09:04:30;94942.25;;;6.42;59.97
65832;BME280;52593;42.648;23.332;2024-01-25T09:06:55;94942.25;;;6.42;60.19
65832;BME280;52593;42.648;23.332;2024-01-25T09:09:21;94949.97;;;6.35;60.11
65832;BME280;52593;42.648;23.332;2024-01-25T09:11:47;94953.34;;;6.28;60.92
65832;BME280;52593;42.648;23.332;2024-01-25T09:14:12;94951.41;;;6.30;60.20
65832;BME280;52593;42.648;23.332;2024-01-25T09:16:38;94940.25;;;6.44;60.17
65832;BME280;52593;42.648;23.332;2024-01-25T09:19:04;94942.19;;;6.52;60.46
65832;BME280;52593;42.648;23.332;2024-01-25T09:21:30;94941.50;;;6.50;60.42
65832;BME280;52593;42.648;23.332;2024-01-25T09:23:55;94949.66;;;6.38;60.16
65832;BME280;52593;42.648;23.332;2024-01-25T09:26:20;94954.97;;;6.38;60.38
65832;BME280;52593;42.648;23.332;2024-01-25T09:28:46;94950.06;;;6.43;60.74
65832;BME280;52593;42.648;23.332;2024-01-25T09:31:11;94937.31;;;6.47;60.56
65832;BME280;52593;42.648;23.332;2024-01-25T09:33:37;94928.97;;;6.42;60.35
65832;BME280;52593;42.648;23.332;2024-01-25T09:36:03;94943.22;;;6.41;60.89
65832;BME280;52593;42.648;23.332;2024-01-25T09:38:28;94948.38;;;6.42;60.28
65832;BME280;52593;42.648;23.332;2024-01-25T09:40:54;94939.44;;;6.43;61.09
65832;BME280;52593;42.648;23.332;2024-01-25T09:43:19;94932.47;;;6.60;61.80
65832;BME280;52593;42.648;23.332;2024-01-25T09:45:53;94921.63;;;6.72;61.46
65832;BME280;52593;42.648;23.332;2024-01-25T09:48:22;94929.75;;;6.70;60.36
65832;BME280;52593;42.648;23.332;2024-01-25T09:50:48;94930.66;;;6.61;60.11
65832;BME280;52593;42.648;23.332;2024-01-25T09:53:21;94906.19;;;6.57;60.14
65832;BME280;52593;42.648;23.332;2024-01-25T09:55:57;94913.03;;;6.60;59.88
65832;BME280;52593;42.648;23.332;2024-01-25T09:58:34;94906.41;;;6.64;60.52
65832;BME280;52593;42.648;23.332;2024-01-25T10:01:02;94899.97;;;6.67;61.31
65832;BME280;52593;42.648;23.332;2024-01-25T10:03:27;94896.94;;;6.62;60.14
65832;BME280;52593;42.648;23.332;2024-01-25T10:05:53;94897.25;;;6.58;60.93
65832;BME280;52593;42.648;23.332;2024-01-25T10:08:18;94894.19;;;6.53;60.45
65832;BME280;52593;42.648;23.332;2024-01-25T10:10:46;94883.53;;;6.53;60.68
65832;BME280;52593;42.648;23.332;2024-01-25T10:13:12;94877.88;;;6.66;61.02
65832;BME280;52593;42.648;23.332;2024-01-25T10:15:39;94881.66;;;6.64;60.25
65832;BME280;52593;42.648;23.332;2024-01-25T10:18:07;94867.09;;;6.68;60.68
65832;BME280;52593;42.648;23.332;2024-01-25T10:20:38;94865.63;;;6.73;60.43
65832;BME280;52593;42.648;23.332;2024-01-25T10:23:05;94863.72;;;6.84;60.35
65832;BME280;52593;42.648;23.332;2024-01-25T10:25:35;94872.69;;;6.83;60.41
65832;BME280;52593;42.648;23.332;2024-01-25T10:28:06;94855.91;;;6.82;60.07
65832;BME280;52593;42.648;23.332;2024-01-25T10:30:32;94858.84;;;6.97;60.49
65832;BME280;52593;42.648;23.332;2024-01-25T10:32:59;94851.69;;;6.97;60.06
65832;BME280;52593;42.648;23.332;2024-01-25T10:35:25;94858.84;;;6.97;60.44
65832;BME280;52593;42.648;23.332;2024-01-25T10:37:51;94856.03;;;6.99;60.86
65832;BME280;52593;42.648;23.332;2024-01-25T10:40:18;94872.69;;;6.83;60.95
65832;BME280;52593;42.648;23.332;2024-01-25T10:42:44;94863.06;;;6.82;61.54
65832;BME280;52593;42.648;23.332;2024-01-25T10:45:10;94870.72;;;6.85;61.44
65832;BME280;52593;42.648;23.332;2024-01-25T10:47:36;94850.28;;;6.85;61.20
65832;BME280;52593;42.648;23.332;2024-01-25T10:50:03;94841.06;;;6.79;61.19
65832;BME280;52593;42.648;23.332;2024-01-25T10:52:30;94843.81;;;6.88;61.58
65832;BME280;52593;42.648;23.332;2024-01-25T10:54:57;94851.91;;;7.04;61.21
65832;BME280;52593;42.648;23.332;2024-01-25T10:57:23;94851.38;;;7.19;59.60
65832;BME280;52593;42.648;23.332;2024-01-25T10:59:49;94841.25;;;7.22;59.59
65832;BME280;52593;42.648;23.332;2024-01-25T11:02:18;94844.44;;;7.26;60.04
65832;BME280;52593;42.648;23.332;2024-01-25T11:04:53;94853.91;;;7.28;58.13
65832;BME280;52593;42.648;23.332;2024-01-25T11:07:20;94843.97;;;7.30;57.58
65832;BME280;52593;42.648;23.332;2024-01-25T11:09:50;94832.88;;;7.35;58.89
65832;BME280;52593;42.648;23.332;2024-01-25T11:12:18;94827.41;;;7.19;56.58
65832;BME280;52593;42.648;23.332;2024-01-25T11:14:44;94833.28;;;7.04;56.43
65832;BME280;52593;42.648;23.332;2024-01-25T11:17:20;94815.06;;;6.91;57.10
65832;BME280;52593;42.648;23.332;2024-01-25T11:19:46;94798.66;;;6.96;56.73
65832;BME280;52593;42.648;23.332;2024-01-25T11:22:13;94801.34;;;7.04;57.04
65832;BME280;52593;42.648;23.332;2024-01-25T11:24:39;94791.78;;;7.11;56.49
65832;BME280;52593;42.648;23.332;2024-01-25T11:27:05;94796.41;;;7.09;56.74
65832;BME280;52593;42.648;23.332;2024-01-25T11:29:30;94796.59;;;7.08;56.83
65832;BME280;52593;42.648;23.332;2024-01-25T11:31:56;94798.50;;;6.97;56.16
65832;BME280;52593;42.648;23.332;2024-01-25T11:34:22;94801.78;;;6.91;57.03
65832;BME280;52593;42.648;23.332;2024-01-25T11:36:49;94799.06;;;6.83;57.63
65832;BME280;52593;42.648;23.332;2024-01-25T11:39:16;94797.22;;;6.84;57.91
65832;BME280;52593;42.648;23.332;2024-01-25T11:41:43;94793.19;;;6.79;57.44
65832;BME280;52593;42.648;23.332;2024-01-25T11:44:12;94799.44;;;6.70;57.81
65832;BME280;52593;42.648;23.332;2024-01-25T11:46:38;94794.97;;;6.71;57.92
65832;BME280;52593;42.648;23.332;2024-01-25T11:49:04;94800.97;;;6.73;57.50
65832;BME280;52593;42.648;23.332;2024-01-25T11:51:29;94803.00;;;6.79;57.06
65832;BME280;52593;42.648;23.332;2024-01-25T11:53:55;94790.94;;;6.85;56.72
65832;BME280;52593;42.648;23.332;2024-01-25T11:56:32;94793.28;;;6.88;56.69
65832;BME280;52593;42.648;23.332;2024-01-25T11:58:59;94781.88;;;6.77;57.34
65832;BME280;52593;42.648;23.332;2024-01-25T12:01:26;94787.22;;;6.77;58.75
65832;BME280;52593;42.648;23.332;2024-01-25T12:03:53;94787.66;;;6.91;57.29
65832;BME280;52593;42.648;23.332;2024-01-25T12:06:19;94792.81;;;6.92;57.69
65832;BME280;52593;42.648;23.332;2024-01-25T12:08:45;94801.47;;;6.94;56.65
65832;BME280;52593;42.648;23.332;2024-01-25T12:11:13;94800.78;;;6.92;57.21
65832;BME280;52593;42.648;23.332;2024-01-25T12:13:41;94796.47;;;6.91;57.20
65832;BME280;52593;42.648;23.332;2024-01-25T12:16:07;94793.13;;;6.89;56.93
65832;BME280;52593;42.648;23.332;2024-01-25T12:18:34;94788.28;;;6.85;57.18
65832;BME280;52593;42.648;23.332;2024-01-25T12:21:04;94785.22;;;6.79;57.06
65832;BME280;52593;42.648;23.332;2024-01-25T12:23:33;94782.56;;;6.79;57.56
65832;BME280;52593;42.648;23.332;2024-01-25T12:26:09;94782.97;;;6.67;57.14
65832;BME280;52593;42.648;23.332;2024-01-25T12:28:36;94774.53;;;6.71;57.77
65832;BME280;52593;42.648;23.332;2024-01-25T12:31:03;94792.28;;;6.89;56.64
65832;BME280;52593;42.648;23.332;2024-01-25T12:33:30;94781.63;;;7.15;56.50
65832;BME280;52593;42.648;23.332;2024-01-25T12:35:56;94771.31;;;7.38;55.43
65832;BME280;52593;42.648;23.332;2024-01-25T12:38:22;94769.31;;;7.40;55.12
65832;BME280;52593;42.648;23.332;2024-01-25T12:40:48;94766.59;;;7.66;54.63
65832;BME280;52593;42.648;23.332;2024-01-25T12:43:15;94739.88;;;7.84;53.16
65832;BME280;52593;42.648;23.332;2024-01-25T12:45:41;94728.25;;;7.94;53.38
65832;BME280;52593;42.648;23.332;2024-01-25T12:48:06;94712.56;;;7.91;53.02
65832;BME280;52593;42.648;23.332;2024-01-25T12:50:33;94724.59;;;7.95;53.04
65832;BME280;52593;42.648;23.332;2024-01-25T12:52:59;94717.09;;;8.07;54.03
65832;BME280;52593;42.648;23.332;2024-01-25T12:55:25;94710.63;;;8.17;52.46